| time (UTC) | temp C | wind direction | speed KPH | gust KPH | rain 1hr cm | rain 24hr cm | rain mn cm | humidity % | barometer mb |
| 20260510204556 | 20 | 66 | 3.2 | 16.1 | 0.00 | 0.53 | 0.53 | 28 | 1024.0 |
| 20260510203057 | 20 | 181 | 3.2 | 16.1 | 0.00 | 0.53 | 0.53 | 27 | 1024.2 |
| 20260510201622 | 19 | 0 | 1.6 | 11.3 | 0.00 | 0.53 | 0.53 | 31 | 1024.1 |
| 20260510200053 | 18 | 66 | 6.4 | 19.3 | 0.00 | 0.53 | 0.53 | 35 | 1024.3 |
| 20260510194604 | 18 | 100 | 6.4 | 16.1 | 0.00 | 0.53 | 0.53 | 31 | 1024.4 |
| 20260510193057 | 18 | 104 | 4.8 | 19.3 | 0.00 | 0.53 | 0.53 | 35 | 1024.5 |
| 20260510191607 | 17 | 64 | 3.2 | 12.9 | 0.00 | 0.53 | 0.53 | 36 | 1024.6 |
| 20260510190107 | 17 | 31 | 4.8 | 14.5 | 0.00 | 0.53 | 0.53 | 36 | 1024.7 |
| 20260510184556 | 17 | 83 | 3.2 | 11.3 | 0.00 | 0.53 | 0.53 | 36 | 1024.7 |
| 20260510183059 | 17 | 289 | 3.2 | 14.5 | 0.00 | 0.53 | 0.53 | 42 | 1024.7 |
| 20260510181557 | 16 | 53 | 4.8 | 12.9 | 0.00 | 0.53 | 0.53 | 46 | 1024.9 |
| 20260510180057 | 16 | 62 | 3.2 | 17.7 | 0.00 | 0.53 | 0.53 | 47 | 1025.0 |
| 20260510174558 | 16 | 338 | 3.2 | 16.1 | 0.00 | 0.53 | 0.53 | 48 | 1024.8 |
| 20260510173056 | 16 | 69 | 4.8 | 14.5 | 0.00 | 0.53 | 0.53 | 46 | 1025.1 |
| 20260510171556 | 15 | 56 | 4.8 | 14.5 | 0.00 | 0.53 | 0.53 | 53 | 1025.1 |
| 20260510170055 | 15 | 1 | 4.8 | 17.7 | 0.00 | 0.53 | 0.53 | 54 | 1025.4 |
| 20260510164554 | 14 | 66 | 6.4 | 16.1 | 0.00 | 0.53 | 0.53 | 56 | 1025.3 |
| 20260510163056 | 15 | 77 | 6.4 | 14.5 | 0.00 | 0.53 | 0.53 | 53 | 1025.1 |
| 20260510161607 | 14 | 67 | 3.2 | 12.9 | 0.00 | 0.53 | 0.53 | 56 | 1024.9 |
| 20260510160135 | 13 | 68 | 6.4 | 16.1 | 0.00 | 0.53 | 0.53 | 59 | 1024.4 |
| 20260510154603 | 12 | 77 | 8.0 | 14.5 | 0.00 | 0.53 | 0.53 | 57 | 1024.4 |
| 20260510153055 | 12 | 63 | 8.0 | 19.3 | 0.00 | 0.53 | 0.53 | 61 | 1024.3 |
| 20260510151558 | 12 | 44 | 4.8 | 19.3 | 0.00 | 0.53 | 0.53 | 69 | 1024.2 |
| 20260510150057 | 11 | 54 | 4.8 | 17.7 | 0.00 | 0.53 | 0.53 | 74 | 1023.9 |
| 20260510144605 | 10 | 79 | 8.0 | 16.1 | 0.03 | 0.53 | 0.53 | 78 | 1023.7 |
| 20260510143056 | 8 | 17 | 1.6 | 9.7 | 0.05 | 0.53 | 0.53 | 86 | 1023.8 |
| 20260510141557 | 8 | 349 | 3.2 | 14.5 | 0.05 | 0.53 | 0.53 | 87 | 1023.5 |
| 20260510140108 | 8 | 68 | 3.2 | 8.0 | 0.05 | 0.53 | 0.53 | 88 | 1023.4 |
| 20260510134605 | 8 | 340 | 3.2 | 16.1 | 0.05 | 0.51 | 0.51 | 88 | 1023.7 |
| 20260510133057 | 8 | 67 | 6.4 | 17.7 | 0.08 | 0.48 | 0.48 | 89 | 1022.8 |
| 20260510131559 | 8 | 52 | 3.2 | 12.9 | 0.13 | 0.48 | 0.48 | 89 | 1023.4 |
| 20260510130056 | 8 | 1 | 4.8 | 20.9 | 0.20 | 0.48 | 0.48 | 90 | 1023.8 |
| 20260510124603 | 9 | 334 | 6.4 | 24.1 | 0.20 | 0.46 | 0.46 | 89 | 1023.6 |
| 20260510123057 | 9 | 35 | 6.4 | 19.3 | 0.18 | 0.41 | 0.41 | 89 | 1023.4 |
| 20260510121557 | 9 | 339 | 8.0 | 19.3 | 0.18 | 0.36 | 0.36 | 87 | 1022.9 |
| 20260510120056 | 10 | 336 | 6.4 | 22.5 | 0.13 | 0.28 | 0.28 | 86 | 1022.6 |
| 20260510114556 | 10 | 347 | 3.2 | 12.9 | 0.13 | 0.25 | 0.25 | 85 | 1022.4 |
| 20260510113102 | 10 | 340 | 1.6 | 6.4 | 0.23 | 0.23 | 0.23 | 84 | 1021.6 |
| 20260510111609 | 10 | 0 | 1.6 | 12.9 | 0.18 | 0.18 | 0.18 | 82 | 1021.4 |
| 20260510110054 | 11 | 18 | 1.6 | 11.3 | 0.15 | 0.15 | 0.15 | 80 | 1021.2 |
| 20260510104555 | 11 | 82 | 1.6 | 9.7 | 0.13 | 0.13 | 0.13 | 76 | 1020.2 |
| 20260510103055 | 12 | 69 | 3.2 | 14.5 | 0.00 | 0.00 | 0.00 | 63 | 1019.9 |
| 20260510101557 | 13 | 127 | 8.0 | 22.5 | 0.00 | 0.00 | 0.00 | 55 | 1018.4 |
| 20260510100057 | 12 | 85 | 6.4 | 20.9 | 0.00 | 0.00 | 0.00 | 56 | 1018.2 |
| 20260510094556 | 12 | 76 | 9.7 | 24.1 | 0.00 | 0.00 | 0.00 | 57 | 1018.4 |
| 20260510093111 | 12 | 83 | 8.0 | 22.5 | 0.00 | 0.00 | 0.00 | 56 | 1018.5 |
| 20260510091557 | 13 | 52 | 6.4 | 19.3 | 0.00 | 0.00 | 0.00 | 56 | 1017.9 |
| 20260510090109 | 13 | 75 | 4.8 | 19.3 | 0.00 | 0.00 | 0.00 | 55 | 1018.8 |
| 20260510084556 | 13 | 52 | 6.4 | 19.3 | 0.00 | 0.00 | 0.00 | 56 | 1018.7 |
| 20260510083113 | 13 | 77 | 6.4 | 16.1 | 0.00 | 0.00 | 0.00 | 57 | 1018.6 |
| 20260510081611 | 13 | 97 | 6.4 | 24.1 | 0.00 | 0.00 | 0.00 | 57 | 1018.7 |
| 20260510080103 | 13 | 64 | 4.8 | 27.4 | 0.00 | 0.00 | 0.00 | 58 | 1018.6 |
| 20260510074604 | 13 | 52 | 8.0 | 25.7 | 0.00 | 0.00 | 0.00 | 58 | 1018.2 |
| 20260510073056 | 13 | 319 | 6.4 | 24.1 | 0.00 | 0.00 | 0.00 | 58 | 1018.3 |
| 20260510071555 | 13 | 18 | 6.4 | 19.3 | 0.00 | 0.00 | 0.00 | 58 | 1018.0 |
| 20260510070058 | 13 | 46 | 6.4 | 20.9 | 0.00 | 0.00 | 0.00 | 57 | 1018.3 |
| 20260510064604 | 13 | 352 | 6.4 | 24.1 | 0.00 | 0.00 | 0.00 | 57 | 1018.2 |
| 20260510063055 | 13 | 70 | 6.4 | 22.5 | 0.00 | 0.00 | 0.00 | 59 | 1018.1 |
| 20260510061557 | 14 | 69 | 4.8 | 20.9 | 0.00 | 0.00 | 0.00 | 60 | 1017.7 |
| 20260510054556 | 15 | 330 | 6.4 | 30.6 | 0.00 | 0.00 | 0.00 | 58 | 1017.5 |
| 20260510053057 | 15 | 70 | 4.8 | 24.1 | 0.00 | 0.00 | 0.00 | 59 | 1016.6 |
| 20260510051559 | 15 | 322 | 12.9 | 29.0 | 0.00 | 0.00 | 0.00 | 59 | 1015.0 |
| 20260510050100 | 15 | 77 | 14.5 | 29.0 | 0.00 | 0.00 | 0.00 | 58 | 1014.7 |
| 20260510044637 | 15 | 77 | 11.3 | 25.7 | 0.00 | 0.00 | 0.00 | 58 | 1014.7 |
| 20260510043059 | 15 | 25 | 12.9 | 27.4 | 0.00 | 0.00 | 0.00 | 58 | 1014.2 |
| 20260510041556 | 16 | 93 | 16.1 | 35.4 | 0.00 | 0.00 | 0.00 | 56 | 1013.7 |
| 20260510040055 | 16 | 66 | 11.3 | 25.7 | 0.00 | 0.00 | 0.00 | 55 | 1013.2 |
| 20260510034554 | 16 | 68 | 8.0 | 19.3 | 0.00 | 0.00 | 0.00 | 54 | 1013.1 |
| 20260510033100 | 17 | 73 | 4.8 | 22.5 | 0.00 | 0.00 | 0.00 | 53 | 1012.9 |
| 20260510031558 | 17 | 46 | 8.0 | 22.5 | 0.00 | 0.00 | 0.00 | 51 | 1012.2 |
| 20260510030055 | 18 | 80 | 11.3 | 24.1 | 0.00 | 0.00 | 0.00 | 49 | 1011.7 |
| 20260510024556 | 18 | 87 | 9.7 | 25.7 | 0.00 | 0.00 | 0.00 | 47 | 1011.4 |
| 20260510023102 | 18 | 37 | 11.3 | 29.0 | 0.00 | 0.00 | 0.00 | 45 | 1010.8 |
| 20260510021557 | 19 | 72 | 9.7 | 27.4 | 0.00 | 0.00 | 0.00 | 44 | 1010.7 |
| 20260510014556 | 21 | 56 | 9.7 | 27.4 | 0.00 | 0.00 | 0.00 | 40 | 1009.9 |
| 20260510013053 | 22 | 18 | 6.4 | 22.5 | 0.00 | 0.00 | 0.00 | 38 | 1009.4 |
| 20260510011558 | 25 | 47 | 8.0 | 27.4 | 0.00 | 0.00 | 0.00 | 33 | 1008.8 |
| 20260510010131 | 26 | 311 | 4.8 | 16.1 | 0.00 | 0.00 | 0.00 | 23 | 1008.2 |
| 20260510004559 | 27 | 352 | 6.4 | 17.7 | 0.00 | 0.00 | 0.00 | 22 | 1007.7 |
| 20260510003059 | 27 | 12 | 8.0 | 17.7 | 0.00 | 0.00 | 0.00 | 21 | 1007.5 |
| 20260510001604 | 28 | 14 | 11.3 | 27.4 | 0.00 | 0.00 | 0.00 | 21 | 1007.5 |
| 20260510000058 | 28 | 10 | 9.7 | 27.4 | 0.00 | 0.00 | 0.00 | 20 | 1007.4 |
| 20260509234642 | 28 | 341 | 6.4 | 30.6 | 0.00 | 0.00 | 0.00 | 21 | 1007.5 |
| 20260509233100 | 29 | 1 | 9.7 | 29.0 | 0.00 | 0.00 | 0.00 | 19 | 1007.5 |
| 20260509231602 | 30 | 1 | 11.3 | 25.7 | 0.00 | 0.00 | 0.00 | 20 | 1007.4 |
| 20260509230058 | 30 | 351 | 11.3 | 24.1 | 0.00 | 0.00 | 0.00 | 18 | 1007.2 |
| 20260509224556 | 30 | 253 | 4.8 | 17.7 | 0.00 | 0.00 | 0.00 | 19 | 1007.1 |
| 20260509223055 | 30 | 339 | 6.4 | 27.4 | 0.00 | 0.00 | 0.00 | 18 | 1007.1 |
| 20260509221554 | 31 | 341 | 8.0 | 19.3 | 0.00 | 0.00 | 0.00 | 18 | 1007.1 |
| 20260509214556 | 31 | 352 | 6.4 | 22.5 | 0.00 | 0.00 | 0.00 | 18 | 1007.0 |
| 20260509213057 | 31 | 318 | 6.4 | 20.9 | 0.00 | 0.00 | 0.00 | 17 | 1007.1 |
| 20260509211556 | 31 | 287 | 6.4 | 16.1 | 0.00 | 0.00 | 0.00 | 18 | 1007.0 |
| 20260509210057 | 31 | 1 | 3.2 | 20.9 | 0.00 | 0.00 | 0.00 | 19 | 1007.2 |